Time;durP1;ratioP1;P1;durP2;ratioP2;P2;SDS_P1;SDS_P2;PMS_P1;PMS_P2;Temp;Humidity;BMP_temperature;BMP_pressure;BME280_temperature;BME280_humidity;BME280_pressure;Samples;Min_cycle;Max_cycle;Signal;HPM_P1;HPM_P2
2023/06/23 00:01:18;;;;;;;5.70;4.63;;;;;;;16.22;100.00;101156.06;6226086;23;20310;-94
2023/06/23 00:03:47;;;;;;;7.15;4.40;;;;;;;16.18;100.00;101159.00;6124239;23;20010;-93
2023/06/23 00:06:14;;;;;;;6.72;5.25;;;;;;;16.42;100.00;101161.66;6124540;23;20002;-94
2023/06/23 00:08:40;;;;;;;6.25;4.68;;;;;;;16.34;100.00;101163.94;6226106;23;20447;-93
2023/06/23 00:11:10;;;;;;;5.97;4.65;;;;;;;16.30;100.00;101171.16;6225777;23;20006;-93
2023/06/23 00:13:36;;;;;;;6.65;4.55;;;;;;;16.34;100.00;101161.34;6124215;23;20002;-92
2023/06/23 00:16:04;;;;;;;7.72;4.95;;;;;;;16.25;100.00;101153.25;6225613;23;20380;-92
2023/06/23 00:18:30;;;;;;;5.78;4.88;;;;;;;16.19;100.00;101147.63;6226308;23;20124;-93
2023/06/23 00:20:56;;;;;;;7.15;4.90;;;;;;;16.17;100.00;101139.94;6225645;23;20006;-93
2023/06/23 00:23:21;;;;;;;7.13;5.30;;;;;;;16.19;100.00;101148.47;6225462;23;20010;-93
2023/06/23 00:25:47;;;;;;;9.02;4.90;;;;;;;16.10;100.00;101146.50;6123809;23;20002;-92
2023/06/23 00:28:13;;;;;;;6.70;4.80;;;;;;;16.00;100.00;101135.88;6225445;23;20417;-95
2023/06/23 00:30:38;;;;;;;6.15;4.70;;;;;;;15.89;100.00;101137.56;6123537;23;20006;-96
2023/06/23 00:33:03;;;;;;;5.88;4.78;;;;;;;15.86;100.00;101138.59;6123885;23;20184;-94
2023/06/23 00:35:29;;;;;;;8.18;5.45;;;;;;;15.80;100.00;101136.41;6123435;23;20002;-95
2023/06/23 00:37:54;;;;;;;8.10;5.30;;;;;;;15.79;100.00;101135.59;6225581;23;20010;-93
2023/06/23 00:40:22;;;;;;;8.45;5.38;;;;;;;15.80;100.00;101137.25;6123871;23;20067;-94
2023/06/23 00:42:54;;;;;;;5.95;5.00;;;;;;;15.76;100.00;101135.81;6123498;23;20013;-93
2023/06/23 00:45:21;;;;;;;8.85;5.30;;;;;;;15.83;100.00;101137.06;6225200;23;20042;-93
2023/06/23 00:47:47;;;;;;;6.95;4.88;;;;;;;15.81;100.00;101141.53;6224595;23;20002;-95
2023/06/23 00:50:16;;;;;;;7.40;5.40;;;;;;;15.78;100.00;101133.09;6225855;23;20010;-93
2023/06/23 00:52:50;;;;;;;5.43;4.57;;;;;;;15.72;100.00;101133.50;6227052;23;20335;-95
2023/06/23 00:55:22;;;;;;;7.63;5.68;;;;;;;15.87;100.00;101152.44;6226903;23;20010;-94
2023/06/23 00:57:49;;;;;;;7.53;4.80;;;;;;;15.86;100.00;101145.59;6226975;23;20349;-93
2023/06/23 01:00:18;;;;;;;8.50;4.60;;;;;;;15.76;100.00;101153.19;6227258;23;20009;-92
2023/06/23 01:02:49;;;;;;;6.38;4.63;;;;;;;15.78;100.00;101157.34;6226723;23;20319;-94
2023/06/23 01:05:27;;;;;;;7.90;5.35;;;;;;;15.68;100.00;101137.22;6125126;23;20061;-93
2023/06/23 01:08:10;;;;;;;6.90;4.97;;;;;;;15.57;100.00;101143.97;6124823;23;20051;-94
2023/06/23 01:11:01;;;;;;;7.32;5.03;;;;;;;15.58;100.00;101145.66;6227358;23;20009;-93
2023/06/23 01:13:51;;;;;;;8.52;4.80;;;;;;;15.54;100.00;101151.16;6124781;23;20502;-95
2023/06/23 01:16:20;;;;;;;6.35;4.90;;;;;;;15.50;100.00;101154.91;6227921;23;20362;-93
2023/06/23 01:18:49;;;;;;;8.23;5.40;;;;;;;15.70;100.00;101151.00;6124074;23;20009;-93
2023/06/23 01:21:20;;;;;;;7.80;4.72;;;;;;;15.65;100.00;101151.25;6226786;23;20009;-94
2023/06/23 01:23:59;;;;;;;9.02;4.30;;;;;;;15.61;100.00;101152.44;6226605;23;20002;-93
2023/06/23 01:26:43;;;;;;;6.70;4.63;;;;;;;15.46;100.00;101149.09;6227658;23;20013;-92
2023/06/23 01:29:09;;;;;;;6.63;4.72;;;;;;;15.35;100.00;101141.97;6226299;23;20017;-92
2023/06/23 01:31:54;;;;;;;7.22;4.65;;;;;;;15.13;100.00;101141.72;6226753;23;20010;-93
2023/06/23 01:34:24;;;;;;;6.78;4.80;;;;;;;15.22;100.00;101148.94;6226362;23;20002;-94
2023/06/23 01:37:07;;;;;;;6.38;5.25;;;;;;;15.16;100.00;101141.53;6226003;23;20072;-93
2023/06/23 01:39:38;;;;;;;6.60;5.32;;;;;;;15.12;100.00;101155.69;6226174;23;20002;-92
2023/06/23 01:42:08;;;;;;;7.97;4.57;;;;;;;15.00;100.00;101139.09;6226292;23;20038;-93
2023/06/23 01:44:37;;;;;;;5.25;4.03;;;;;;;14.96;100.00;101142.81;6226736;23;20232;-94
2023/06/23 01:47:10;;;;;;;6.47;4.82;;;;;;;15.01;100.00;101137.34;6227002;23;20006;-91
2023/06/23 01:49:37;;;;;;;6.28;4.82;;;;;;;14.98;100.00;101128.78;6226671;23;20002;-93
2023/06/23 01:52:04;;;;;;;5.90;4.63;;;;;;;14.88;100.00;101138.13;6226380;23;20063;-91
2023/06/23 01:54:32;;;;;;;9.43;4.97;;;;;;;14.91;100.00;101145.72;6226335;23;20006;-94
2023/06/23 01:57:00;;;;;;;7.05;6.00;;;;;;;14.90;100.00;101151.84;6124736;23;20006;-93
2023/06/23 01:59:27;;;;;;;9.82;5.65;;;;;;;15.04;100.00;101142.31;6226936;23;20392;-92
2023/06/23 02:01:53;;;;;;;9.75;5.35;;;;;;;14.97;100.00;101142.72;6123181;23;20002;-92
2023/06/23 02:04:19;;;;;;;6.75;5.20;;;;;;;14.95;100.00;101144.59;6225390;23;20060;-91
2023/06/23 02:06:48;;;;;;;7.50;5.82;;;;;;;14.87;100.00;101146.84;6225508;23;20010;-93
2023/06/23 02:09:26;;;;;;;6.80;5.35;;;;;;;15.02;100.00;101147.63;6225564;23;20006;-94
2023/06/23 02:11:54;;;;;;;7.30;5.40;;;;;;;15.08;100.00;101143.78;6225476;23;20008;-93
2023/06/23 02:14:21;;;;;;;6.05;4.80;;;;;;;14.94;100.00;101137.72;6225226;23;20433;-93
2023/06/23 02:16:49;;;;;;;6.93;5.13;;;;;;;14.87;100.00;101143.41;6225290;23;20010;-92
2023/06/23 02:19:16;;;;;;;6.38;4.60;;;;;;;14.85;100.00;101142.66;6225728;23;20005;-95
2023/06/23 02:21:44;;;;;;;10.40;7.15;;;;;;;14.92;100.00;101134.41;6225428;23;20002;-91
2023/06/23 02:24:11;;;;;;;8.55;6.03;;;;;;;14.96;100.00;101137.63;6123468;23;20076;-92
2023/06/23 02:26:38;;;;;;;8.80;6.30;;;;;;;14.94;100.00;101148.09;6225139;23;20310;-92
2023/06/23 02:29:06;;;;;;;8.70;5.88;;;;;;;14.85;100.00;101138.31;6225144;23;20096;-92
2023/06/23 02:31:32;;;;;;;7.20;6.13;;;;;;;14.85;100.00;101146.13;6225288;23;20009;-92
2023/06/23 02:33:58;;;;;;;7.25;5.75;;;;;;;14.76;100.00;101149.31;6225065;23;20002;-92
2023/06/23 02:36:28;;;;;;;11.38;6.00;;;;;;;14.91;100.00;101161.31;6225113;23;20010;-93
2023/06/23 02:38:57;;;;;;;8.57;6.32;;;;;;;15.01;100.00;101155.53;6123414;23;20079;-93
2023/06/23 02:41:26;;;;;;;6.93;5.57;;;;;;;14.95;100.00;101170.59;6123255;23;20041;-92
2023/06/23 02:43:55;;;;;;;9.90;6.10;;;;;;;14.83;100.00;101160.16;6123709;23;20006;-91
2023/06/23 02:46:24;;;;;;;8.63;6.38;;;;;;;14.89;100.00;101162.34;6225562;23;20391;-91
2023/06/23 02:48:52;;;;;;;7.40;5.53;;;;;;;14.74;100.00;101166.75;6123330;23;20006;-92
2023/06/23 02:51:21;;;;;;;7.43;6.00;;;;;;;14.66;100.00;101184.59;6123390;23;20061;-94
2023/06/23 02:54:05;;;;;;;7.72;5.47;;;;;;;14.62;100.00;101175.31;6225225;23;20088;-92
2023/06/23 02:56:34;;;;;;;6.22;5.60;;;;;;;14.68;100.00;101182.72;6123319;23;20013;-94
2023/06/23 02:59:05;;;;;;;9.23;5.55;;;;;;;14.68;100.00;101174.91;6225387;23;20379;-93
2023/06/23 03:01:34;;;;;;;7.83;5.57;;;;;;;14.73;100.00;101175.50;6225300;23;20032;-93
2023/06/23 03:04:00;;;;;;;8.75;6.03;;;;;;;14.68;100.00;101177.53;6225408;23;20392;-93
2023/06/23 03:06:26;;;;;;;8.65;6.22;;;;;;;14.71;100.00;101179.94;6123203;23;20507;-92
2023/06/23 03:08:51;;;;;;;11.88;6.60;;;;;;;14.68;100.00;101177.53;6225220;23;20443;-92
2023/06/23 03:11:20;;;;;;;7.75;5.72;;;;;;;14.62;100.00;101178.75;6225025;23;20070;-93
2023/06/23 03:13:47;;;;;;;9.85;5.72;;;;;;;14.63;100.00;101179.56;6225012;23;20327;-93
2023/06/23 03:16:22;;;;;;;8.80;5.30;;;;;;;14.57;100.00;101187.75;6123083;23;20073;-92
2023/06/23 03:18:58;;;;;;;8.98;5.70;;;;;;;14.54;100.00;101194.00;6123296;23;20081;-91
2023/06/23 03:21:24;;;;;;;7.90;5.72;;;;;;;14.48;100.00;101192.56;6225044;23;20310;-92
2023/06/23 03:23:55;;;;;;;6.72;5.28;;;;;;;14.55;100.00;101199.06;6122901;23;20032;-92
2023/06/23 03:26:22;;;;;;;6.90;5.57;;;;;;;14.58;100.00;101202.41;6123584;23;20510;-90
2023/06/23 03:28:50;;;;;;;9.07;5.88;;;;;;;14.58;100.00;101202.41;6123405;23;20085;-93
2023/06/23 03:31:18;;;;;;;10.77;6.55;;;;;;;14.52;100.00;101199.22;6123099;23;20060;-93
2023/06/23 03:33:47;;;;;;;9.00;6.57;;;;;;;14.57;100.00;101209.38;6123286;23;20002;-93
2023/06/23 03:36:31;;;;;;;8.93;6.22;;;;;;;14.60;100.00;101198.78;6122825;23;20036;-91
2023/06/23 03:39:03;;;;;;;12.10;6.50;;;;;;;14.65;100.00;101193.31;6123152;23;20005;-91
2023/06/23 03:41:29;;;;;;;;;;;;;;;14.65;100.00;101199.34;6225371;23;20002;-93
2023/06/23 03:43:59;;;;;;;7.05;5.47;;;;;;;14.62;100.00;101196.94;6123279;22;19916;-92
2023/06/23 03:46:57;;;;;;;9.63;6.32;;;;;;;14.60;100.00;101200.56;6225897;23;20006;-93
2023/06/23 03:49:28;;;;;;;7.72;6.50;;;;;;;14.51;100.00;101194.97;6223847;23;20037;-92
2023/06/23 03:51:57;;;;;;;8.32;5.80;;;;;;;14.52;100.00;101214.00;6123277;23;20073;-92
2023/06/23 03:54:24;;;;;;;9.13;5.68;;;;;;;14.62;100.00;101224.69;6224476;23;20030;-95
2023/06/23 03:56:52;;;;;;;9.43;6.88;;;;;;;14.61;100.00;101223.03;6224533;23;20322;-92
2023/06/23 03:59:21;;;;;;;7.53;5.88;;;;;;;14.70;100.00;101223.28;6225005;23;20008;-92
2023/06/23 04:01:48;;;;;;;7.80;6.03;;;;;;;14.70;100.00;101212.03;6122819;23;20059;-92
2023/06/23 04:04:17;;;;;;;9.10;5.88;;;;;;;14.66;100.00;101218.38;6122935;22;20013;-92
2023/06/23 04:06:45;;;;;;;7.38;5.10;;;;;;;14.57;100.00;101206.78;6224567;23;20077;-94
2023/06/23 04:09:13;;;;;;;7.22;5.10;;;;;;;14.48;100.00;101202.13;6122712;23;20010;-93
2023/06/23 04:11:39;;;;;;;7.28;5.30;;;;;;;14.48;100.00;101217.69;6122853;23;20029;-93
2023/06/23 04:14:07;;;;;;;8.68;5.28;;;;;;;14.37;100.00;101213.16;6224291;23;20010;-93
2023/06/23 04:16:36;;;;;;;8.57;5.70;;;;;;;14.36;100.00;101208.88;6122547;23;20056;-92
2023/06/23 04:19:03;;;;;;;6.75;5.93;;;;;;;14.33;100.00;101209.09;6122380;23;20001;-91
2023/06/23 04:21:32;;;;;;;6.82;5.93;;;;;;;14.25;100.00;101219.09;6122531;23;20005;-93
2023/06/23 04:24:03;;;;;;;7.53;5.65;;;;;;;14.26;100.00;101228.56;6224337;23;20006;-93
2023/06/23 04:26:28;;;;;;;8.00;6.20;;;;;;;14.32;100.00;101220.41;6225967;23;20029;-92
2023/06/23 04:28:55;;;;;;;8.95;5.50;;;;;;;14.29;100.00;101221.44;6226081;23;20368;-93
2023/06/23 04:31:22;;;;;;;8.73;5.53;;;;;;;14.27;100.00;101225.06;6226289;23;20010;-93
2023/06/23 04:33:48;;;;;;;9.20;6.13;;;;;;;14.49;100.00;101221.97;6226422;23;20006;-92
2023/06/23 04:36:16;;;;;;;7.53;5.75;;;;;;;14.44;100.00;101237.84;6225893;23;20017;-94
2023/06/23 04:38:55;;;;;;;8.00;5.60;;;;;;;14.43;100.00;101235.31;6123604;23;20002;-92
2023/06/23 04:41:24;;;;;;;9.73;6.55;;;;;;;14.47;100.00;101226.44;6225920;23;19998;-93
2023/06/23 04:43:56;;;;;;;7.10;5.57;;;;;;;14.52;100.00;101233.00;6226411;23;20076;-93
2023/06/23 04:46:26;;;;;;;;;;;;;;;14.58;100.00;101237.00;6124201;23;20074;-94
2023/06/23 04:48:55;;;;;;;7.40;5.68;;;;;;;14.55;100.00;101237.22;6123682;22;19916;-91
2023/06/23 04:51:24;;;;;;;8.32;5.35;;;;;;;14.53;100.00;101226.94;6226081;23;20006;-91
2023/06/23 04:53:56;;;;;;;5.63;5.07;;;;;;;14.51;100.00;101239.16;6226136;23;20002;-93
2023/06/23 04:56:24;;;;;;;7.85;5.85;;;;;;;14.66;100.00;101246.97;6123709;23;20033;-93
2023/06/23 04:58:54;;;;;;;6.45;5.55;;;;;;;14.67;100.00;101244.25;6226166;23;20332;-92
2023/06/23 05:01:20;;;;;;;8.25;6.43;;;;;;;14.77;100.00;101245.34;6226582;23;20009;-92
2023/06/23 05:03:51;;;;;;;8.27;6.15;;;;;;;14.85;100.00;101242.28;6226250;23;20036;-96
2023/06/23 05:06:19;;;;;;;6.57;5.70;;;;;;;14.93;100.00;101240.03;6226888;23;20038;-94
2023/06/23 05:08:47;;;;;;;7.05;5.15;;;;;;;15.03;100.00;101247.25;6124395;23;20002;-93
2023/06/23 05:11:14;;;;;;;7.22;4.65;;;;;;;15.10;100.00;101243.34;6227361;23;20013;-93
2023/06/23 05:13:41;;;;;;;6.70;4.90;;;;;;;15.15;100.00;101247.31;6227400;23;20029;-95
2023/06/23 05:16:11;;;;;;;7.47;5.05;;;;;;;15.24;100.00;101248.50;6227494;23;20080;-93
2023/06/23 05:18:39;;;;;;;5.05;4.55;;;;;;;15.26;100.00;101241.41;6228258;23;20094;-92
2023/06/23 05:21:05;;;;;;;5.85;4.93;;;;;;;15.29;100.00;101241.22;6123931;23;19998;-92
2023/06/23 05:23:37;;;;;;;7.63;5.22;;;;;;;15.38;100.00;101240.59;6226566;23;20030;-94
2023/06/23 05:26:06;;;;;;;5.43;4.63;;;;;;;15.43;100.00;101240.31;6225980;23;20002;-93
2023/06/23 05:28:35;;;;;;;9.30;5.13;;;;;;;15.46;100.00;101231.47;6227153;23;20002;-94
2023/06/23 05:31:02;;;;;;;7.65;4.90;;;;;;;15.56;100.00;101238.59;6226842;23;20002;-94
2023/06/23 05:33:32;;;;;;;5.72;4.63;;;;;;;15.66;100.00;101244.03;6226555;23;20310;-93
2023/06/23 05:35:59;;;;;;;7.70;5.20;;;;;;;15.77;100.00;101241.56;6225844;23;20528;-94
2023/06/23 05:38:28;;;;;;;7.40;5.72;;;;;;;15.81;100.00;101244.81;6225439;23;20013;-93
2023/06/23 05:40:54;;;;;;;8.93;4.85;;;;;;;15.93;100.00;101248.38;6225571;23;19998;-92
2023/06/23 05:43:19;;;;;;;9.23;6.45;;;;;;;15.98;100.00;101254.09;6226029;23;20002;-96
2023/06/23 05:45:45;;;;;;;7.88;5.95;;;;;;;15.97;100.00;101248.06;6226843;23;20428;-93
2023/06/23 05:48:36;;;;;;;8.85;4.82;;;;;;;16.09;100.00;101251.59;6226552;23;20329;-93
2023/06/23 05:51:06;;;;;;;7.90;5.57;;;;;;;16.22;100.00;101255.03;6225918;23;20463;-94
2023/06/23 05:53:34;;;;;;;8.48;5.53;;;;;;;16.35;100.00;101246.38;6225743;23;19995;-93
2023/06/23 05:56:08;;;;;;;8.48;5.82;;;;;;;16.54;100.00;101251.16;6225706;23;20080;-93
2023/06/23 05:58:40;;;;;;;6.57;5.50;;;;;;;16.71;100.00;101247.38;6226051;23;20002;-94
2023/06/23 06:01:10;;;;;;;5.28;4.60;;;;;;;16.92;100.00;101256.31;6225983;23;20006;-91
2023/06/23 06:03:44;;;;;;;6.07;5.25;;;;;;;17.04;100.00;101255.41;6225943;23;20009;-95
2023/06/23 06:06:11;;;;;;;5.80;4.85;;;;;;;17.16;100.00;101260.72;6225745;23;20009;-92
2023/06/23 06:08:38;;;;;;;6.90;4.95;;;;;;;17.25;100.00;101258.28;6225693;23;20071;-94
2023/06/23 06:11:05;;;;;;;9.00;5.32;;;;;;;17.30;100.00;101255.34;6225608;23;20056;-93
2023/06/23 06:13:35;;;;;;;8.20;5.10;;;;;;;17.42;100.00;101254.44;6123218;23;20002;-95
2023/06/23 06:16:03;;;;;;;6.32;4.97;;;;;;;17.42;100.00;101248.38;6225311;23;20306;-94
2023/06/23 06:18:31;;;;;;;7.50;4.53;;;;;;;17.52;100.00;101254.59;6225311;23;20033;-93
2023/06/23 06:20:59;;;;;;;6.13;4.53;;;;;;;17.60;100.00;101256.63;6225043;23;20032;-94
2023/06/23 06:23:25;;;;;;;7.60;5.38;;;;;;;17.61;100.00;101260.94;6225198;23;20020;-92
2023/06/23 06:25:53;;;;;;;8.75;5.28;;;;;;;17.68;100.00;101267.31;6123605;22;20429;-93
2023/06/23 06:28:19;;;;;;;5.38;4.53;;;;;;;17.72;100.00;101272.22;6225483;23;20006;-92
2023/06/23 06:30:46;;;;;;;5.55;4.85;;;;;;;17.83;100.00;101274.06;6224759;23;20001;-92
2023/06/23 06:33:13;;;;;;;7.63;5.22;;;;;;;17.80;100.00;101282.16;6225202;23;20452;-93
2023/06/23 06:35:42;;;;;;;6.93;4.82;;;;;;;17.84;100.00;101295.78;6123021;23;20009;-93
2023/06/23 06:38:10;;;;;;;7.50;5.00;;;;;;;17.83;100.00;101294.97;6123047;23;20006;-91
2023/06/23 06:40:38;;;;;;;6.35;4.97;;;;;;;17.82;100.00;101297.69;6225648;23;20017;-94
2023/06/23 06:43:04;;;;;;;6.28;4.60;;;;;;;17.87;100.00;101295.56;6212040;23;20005;-96
2023/06/23 06:45:29;;;;;;;6.78;5.80;;;;;;;17.93;100.00;101290.72;6226195;23;20026;-96
2023/06/23 06:47:58;;;;;;;5.38;4.50;;;;;;;18.15;100.00;101286.50;6229829;23;20089;-93
2023/06/23 06:50:26;;;;;;;6.88;5.57;;;;;;;18.28;100.00;101300.28;6229248;23;20113;-95
2023/06/23 06:52:52;;;;;;;10.02;6.13;;;;;;;18.40;100.00;101303.72;6227115;23;20010;-95
2023/06/23 06:55:19;;;;;;;5.95;4.68;;;;;;;18.68;100.00;101306.81;6226061;23;20006;-93
2023/06/23 06:57:48;;;;;;;4.82;4.32;;;;;;;18.88;98.57;101303.53;6228337;23;20010;-95
2023/06/23 07:00:17;;;;;;;5.55;4.50;;;;;;;19.08;97.11;101304.56;6125286;23;20444;-94
2023/06/23 07:02:44;;;;;;;5.75;4.18;;;;;;;19.13;96.42;101312.88;6235005;23;20022;-95
2023/06/23 07:05:10;;;;;;;8.55;4.82;;;;;;;19.00;97.61;101306.97;6230348;23;20002;-96
2023/06/23 07:07:36;;;;;;;6.57;4.70;;;;;;;18.93;98.12;101318.88;6233811;23;20006;-94
2023/06/23 07:10:02;;;;;;;5.35;4.70;;;;;;;18.95;97.72;101325.63;6228639;23;20006;-96
2023/06/23 07:12:28;;;;;;;6.13;4.70;;;;;;;18.87;97.25;101314.09;6228287;23;20077;-96
2023/06/23 07:14:53;;;;;;;5.70;4.70;;;;;;;18.97;96.33;101330.72;6231696;23;20010;-93
2023/06/23 07:17:19;;;;;;;5.13;4.63;;;;;;;19.01;96.56;101330.38;6232684;23;20013;-96
2023/06/23 07:19:45;;;;;;;6.10;4.90;;;;;;;19.11;96.62;101335.72;6231393;23;20017;-96
2023/06/23 07:22:10;;;;;;;5.63;5.00;;;;;;;19.36;95.28;101344.22;6232722;23;20006;-96
2023/06/23 07:24:36;;;;;;;6.82;4.15;;;;;;;19.65;92.46;101328.78;6231444;23;20017;-96
2023/06/23 07:27:05;;;;;;;7.93;5.13;;;;;;;19.79;90.88;101338.97;6241932;23;20050;-96
2023/06/23 07:29:31;;;;;;;7.43;4.97;;;;;;;20.01;88.12;101335.41;6274711;22;20031;-96
2023/06/23 07:32:01;;;;;;;7.43;5.13;;;;;;;20.35;86.03;101332.59;6273883;22;20017;-95
2023/06/23 07:34:35;;;;;;;7.88;5.22;;;;;;;20.18;85.58;101341.88;6275803;22;20001;-96
2023/06/23 07:37:01;;;;;;;6.50;4.88;;;;;;;20.41;84.16;101336.47;6268976;22;20007;-95
2023/06/23 07:39:31;;;;;;;5.15;4.28;;;;;;;20.59;81.85;101331.50;6261711;22;20029;-96
2023/06/23 07:42:01;;;;;;;5.93;4.63;;;;;;;20.94;80.27;101338.94;6241562;22;20440;-96
2023/06/23 07:44:27;;;;;;;5.80;4.55;;;;;;;21.21;78.23;101350.63;6243855;22;19997;-96
2023/06/23 07:46:55;;;;;;;5.15;3.60;;;;;;;21.43;75.29;101349.56;6267682;22;20009;-96
2023/06/23 07:49:44;;;;;;;5.18;3.85;;;;;;;21.64;74.23;101347.66;6273878;22;20002;-96
2023/06/23 07:52:09;;;;;;;3.80;3.15;;;;;;;21.79;70.49;101341.00;6269044;22;20328;-96
2023/06/23 07:54:36;;;;;;;6.03;3.47;;;;;;;21.78;70.88;101352.50;6260891;22;20025;-96
2023/06/23 07:57:04;;;;;;;6.18;3.47;;;;;;;22.00;69.09;101342.66;6262653;22;20429;-96
2023/06/23 07:59:29;;;;;;;9.18;3.60;;;;;;;22.17;66.44;101344.56;6267591;22;20001;-96
2023/06/23 08:01:55;;;;;;;3.80;2.58;;;;;;;22.46;65.90;101345.50;6264448;22;20390;-96
2023/06/23 08:04:22;;;;;;;5.07;2.92;;;;;;;22.66;65.45;101354.97;6267886;22;20019;-95
2023/06/23 08:06:48;;;;;;;4.93;3.20;;;;;;;23.15;63.64;101362.69;6277734;22;20348;-96
2023/06/23 08:09:22;;;;;;;4.18;2.72;;;;;;;22.88;63.83;101359.03;6271854;22;20006;-96
2023/06/23 08:11:50;;;;;;;4.30;2.70;;;;;;;23.35;62.01;101366.00;6294265;22;20010;-96
2023/06/23 08:17:50;;;;;;;3.72;2.58;;;;;;;23.46;60.40;101364.00;6175802;23;20012;-96
2023/06/23 08:20:18;;;;;;;5.78;2.70;;;;;;;23.85;60.83;101358.44;6205211;22;20021;-96
2023/06/23 08:25:22;;;;;;;5.15;2.97;;;;;;;23.46;61.74;101357.91;6142061;23;20014;-96
2023/06/23 08:28:19;;;;;;;5.50;2.90;;;;;;;23.43;61.49;101358.19;6286676;22;20065;-96
2023/06/23 15:34:43;;;;;;;4.97;2.33;;;;;;;24.61;54.94;101309.47;6191530;23;20021;-96
2023/06/23 15:50:23;;;;;;;5.55;2.88;;;;;;;24.51;54.04;101314.06;6158715;23;20021;-96
2023/06/23 15:52:51;;;;;;;4.50;2.50;;;;;;;24.58;53.88;101306.31;6303438;22;20008;-96
2023/06/23 16:07:05;;;;;;;5.57;2.55;;;;;;;24.47;54.28;101305.59;6112983;22;20018;-95
2023/06/23 16:09:47;;;;;;;5.78;2.63;;;;;;;24.11;55.89;101310.16;6111427;22;20029;-95
2023/06/23 16:12:16;;;;;;;4.28;2.40;;;;;;;24.24;55.55;101313.22;6251754;22;20014;-96
2023/06/23 16:22:42;;;;;;;7.45;2.47;;;;;;;23.98;56.73;101309.75;6127188;22;20021;-96
2023/06/23 16:25:17;;;;;;;;;;;;;;;;;;;;;
2023/06/23 16:38:43;;;;;;;5.25;2.22;;;;;;;24.33;56.45;101303.53;6098322;22;20013;-96
2023/06/23 16:41:10;;;;;;;3.63;2.25;;;;;;;23.83;57.75;101310.31;6212010;22;20010;-95
2023/06/23 16:46:14;;;;;;;3.85;2.53;;;;;;;23.93;58.15;101313.69;6113278;22;20014;-95
2023/06/23 16:48:39;;;;;;;4.20;2.72;;;;;;;23.77;58.61;101313.53;6231753;23;20433;-96
2023/06/23 16:51:08;;;;;;;3.75;2.60;;;;;;;23.66;59.12;101305.88;6230445;22;20032;-96
2023/06/23 17:14:30;;;;;;;8.05;2.97;;;;;;;23.91;58.39;101291.91;6109524;22;20432;-96
2023/06/23 17:41:48;;;;;;;5.85;3.15;;;;;;;24.02;59.40;101300.53;6097994;22;20018;-95
2023/06/23 20:00:07;;;;;;;6.10;2.88;;;;;;;21.09;71.13;101314.00;6144092;22;20021;-95
2023/06/23 20:02:42;;;;;;;5.22;2.58;;;;;;;20.92;71.58;101314.63;6255569;22;20044;-96
2023/06/23 20:05:23;;;;;;;6.18;2.70;;;;;;;20.86;72.17;101310.75;6255633;22;20008;-95
2023/06/23 20:07:50;;;;;;;7.93;2.90;;;;;;;21.00;71.76;101327.09;6255140;22;20017;-93
2023/06/23 20:10:16;;;;;;;4.07;2.70;;;;;;;20.88;72.33;101321.13;6255340;22;20014;-96
2023/06/23 20:12:57;;;;;;;5.32;2.72;;;;;;;20.83;72.90;101324.16;6255951;22;20097;-96
2023/06/23 20:15:25;;;;;;;12.45;3.17;;;;;;;20.69;73.88;101324.50;6259193;22;20025;-95
2023/06/23 20:17:53;;;;;;;3.75;2.60;;;;;;;20.41;75.53;101320.75;6259698;22;20017;-96
2023/06/23 20:22:58;;;;;;;5.50;2.88;;;;;;;20.38;75.45;101321.84;6140921;23;20002;-96
2023/06/23 20:30:39;;;;;;;8.73;3.38;;;;;;;20.28;76.55;101320.97;6134341;22;20063;-96
2023/06/23 20:35:46;;;;;;;8.68;2.97;;;;;;;20.02;77.30;101331.84;6139568;22;20018;-96
2023/06/23 20:39:02;;;;;;;;;;;;;;;;;;;;;
2023/06/23 21:48:44;;;;;;;5.88;4.07;;;;;;;18.74;88.00;101343.78;6116780;22;20018;-95
2023/06/23 21:51:18;;;;;;;8.45;5.13;;;;;;;18.76;88.49;101341.94;6228421;22;20025;-96
2023/06/23 21:54:26;;;;;;;9.30;4.93;;;;;;;18.46;90.41;101339.88;6247984;22;20062;-96
2023/06/23 21:57:07;;;;;;;9.10;5.03;;;;;;;18.48;90.70;101337.13;6155948;22;21012;-96
2023/06/23 22:00:30;;;;;;;;;;;;;;;;;;;;;
2023/06/23 22:03:44;;;;;;;9.52;6.47;;;;;;;18.34;91.87;101339.03;6161431;22;20020;-96
2023/06/23 22:06:11;;;;;;;7.15;4.93;;;;;;;18.37;92.96;101340.56;6147278;22;20098;-96
2023/06/23 22:08:41;;;;;;;8.70;5.32;;;;;;;18.37;92.72;101345.78;6301017;22;20294;-96
2023/06/23 22:11:12;;;;;;;11.23;5.63;;;;;;;18.48;92.47;101347.56;6287378;22;20092;-96
2023/06/23 22:13:51;;;;;;;11.10;5.03;;;;;;;18.50;92.77;101340.47;6263307;22;20032;-96
2023/06/23 22:16:25;;;;;;;10.50;5.50;;;;;;;18.64;92.27;101350.69;6264523;22;20305;-96
2023/06/23 22:18:52;;;;;;;8.50;4.40;;;;;;;18.63;92.60;101348.19;6163195;23;20006;-96
2023/06/23 22:21:20;;;;;;;13.75;6.18;;;;;;;18.70;90.09;101337.13;6265711;22;20013;-96
2023/06/23 22:24:05;;;;;;;10.73;5.05;;;;;;;18.59;90.88;101334.53;6270482;22;20005;-96
2023/06/23 22:26:33;;;;;;;9.30;5.22;;;;;;;18.59;91.08;101335.34;6267034;22;20014;-96
2023/06/23 22:29:06;;;;;;;9.13;4.70;;;;;;;18.64;90.94;101336.78;6218528;22;20014;-96
2023/06/23 22:31:44;;;;;;;7.40;4.60;;;;;;;18.66;90.55;101338.34;6111114;23;20021;-96
2023/06/23 22:34:22;;;;;;;8.82;5.13;;;;;;;18.59;90.44;101334.53;6109384;23;20046;-96
2023/06/23 22:36:53;;;;;;;8.32;5.30;;;;;;;18.58;89.63;101338.06;6115485;23;20013;-96
2023/06/23 22:39:34;;;;;;;11.48;6.25;;;;;;;18.53;90.09;101327.16;6103613;23;20006;-96
2023/06/23 22:42:05;;;;;;;6.93;4.27;;;;;;;18.53;89.95;101332.38;6108000;23;20002;-96
2023/06/23 22:44:33;;;;;;;10.02;5.78;;;;;;;18.69;90.61;101327.63;6109047;23;20006;-94
2023/06/23 22:47:13;;;;;;;8.07;3.92;;;;;;;18.70;89.29;101326.66;6128728;23;20045;-96
2023/06/23 22:49:53;;;;;;;9.00;5.05;;;;;;;18.66;89.53;101329.66;6106934;23;20002;-95
2023/06/23 22:52:27;;;;;;;6.35;3.80;;;;;;;18.59;90.24;101331.91;6109262;23;20037;-96
2023/06/23 22:54:55;;;;;;;7.40;5.00;;;;;;;18.44;90.10;101325.25;6102786;23;20688;-96
2023/06/23 22:57:23;;;;;;;10.43;5.72;;;;;;;18.49;90.03;101323.13;6105278;23;20065;-94
2023/06/23 23:00:05;;;;;;;8.35;5.03;;;;;;;18.47;89.71;101325.00;6108930;23;20081;-96
2023/06/23 23:02:33;;;;;;;;;;;;;;;18.51;89.36;101329.06;6108072;23;20057;-96
2023/06/23 23:05:09;;;;;;;8.38;4.00;;;;;;;18.54;90.52;101336.66;6116401;23;19909;-96
2023/06/23 23:07:41;;;;;;;6.13;4.32;;;;;;;18.57;90.54;101334.63;6121315;23;20029;-96
2023/06/23 23:10:07;;;;;;;7.85;4.20;;;;;;;18.49;90.41;101337.00;6104021;23;20097;-96
2023/06/23 23:12:49;;;;;;;5.20;3.63;;;;;;;18.59;89.94;101329.31;6103971;23;20002;-96
2023/06/23 23:15:23;;;;;;;8.00;4.28;;;;;;;18.64;87.81;101342.84;6110313;23;20014;-95
2023/06/23 23:18:06;;;;;;;6.63;3.47;;;;;;;18.47;87.91;101335.47;6106131;23;19990;-96
2023/06/23 23:20:42;;;;;;;7.10;3.70;;;;;;;18.46;88.32;101329.41;6102767;23;20010;-96
2023/06/23 23:23:11;;;;;;;7.18;4.20;;;;;;;18.46;88.20;101334.66;6108616;23;20041;-96
2023/06/23 23:25:39;;;;;;;7.53;4.15;;;;;;;18.56;86.65;101335.59;6103078;23;20006;-95
2023/06/23 23:28:18;;;;;;;6.40;3.50;;;;;;;18.44;87.54;101335.72;6098140;23;20392;-96
2023/06/23 23:30:44;;;;;;;8.05;3.75;;;;;;;18.31;88.78;101341.88;6109035;23;20044;-95
2023/06/23 23:33:13;;;;;;;7.63;4.10;;;;;;;18.24;89.27;101340.66;6116945;23;20005;-94
2023/06/23 23:35:53;;;;;;;8.75;4.03;;;;;;;18.28;88.52;101339.47;6109199;23;20010;-96
2023/06/23 23:38:25;;;;;;;7.32;3.95;;;;;;;18.20;88.58;101333.19;6110487;23;20017;-96
2023/06/23 23:41:20;;;;;;;6.95;3.60;;;;;;;18.08;90.14;101329.69;6134264;23;20013;-96
2023/06/23 23:43:54;;;;;;;6.65;3.95;;;;;;;18.00;90.96;101321.63;6102096;23;20037;-96
2023/06/23 23:46:31;;;;;;;6.90;4.30;;;;;;;17.91;91.53;101329.16;6100045;23;20094;-96
2023/06/23 23:48:56;;;;;;;7.22;4.38;;;;;;;17.90;91.77;101316.25;6106599;23;20006;-95
2023/06/23 23:51:48;;;;;;;13.45;4.68;;;;;;;17.99;91.12;101327.78;6107156;23;20006;-96
2023/06/23 23:54:20;;;;;;;;;;;;;;;17.86;92.30;101339.13;6105816;23;20010;-96
2023/06/23 23:56:50;;;;;;;10.52;4.60;;;;;;;17.86;92.13;101326.06;6102079;23;19909;-96